Mankato, Minnesota
Current Conditions -  °F | °C
As of 3:35 PM on Friday 19 Dec 2014 (Local Time) from KMKT Reporting Station
Overcast Overcast  
Wind Chill: 21°   Ceiling: 1000
Heat Index: 30°   Visibility: 5mi
Dew Point: 25°   Wind: 10mph
Humidity: 80%   Direction: 170°S
Pressure: 30.17"   Gusts: NA
Location:  44.17°N, 94°W
Report Text: KMKT 192135Z AUTO 17009KT 5SM OVC010 M01/M04 A3017 RMK AO1
Loading
Personal Weather Stations






























Interactive Weather Map New forecast layout! Learn more

10-Day Weather Forecast

Advertisements
Track Severe Weather on mobile